sensor_id;sensor_type;location;lat;lon;timestamp;pressure;altitude;pressure_sealevel;temperature;humidity
47524;BME280;33253;42.144;25.884;2022-10-18T00:01:04;102144.25;;;10.03;84.48
47524;BME280;33253;42.144;25.884;2022-10-18T00:03:30;102138.97;;;9.88;84.92
47524;BME280;33253;42.144;25.884;2022-10-18T00:05:57;102067.56;;;9.49;85.58
47524;BME280;33253;42.144;25.884;2022-10-18T00:08:23;102123.34;;;9.74;86.05
47524;BME280;33253;42.144;25.884;2022-10-18T00:10:49;102082.00;;;9.33;86.33
47524;BME280;33253;42.144;25.884;2022-10-18T00:13:14;102122.13;;;9.55;87.51
47524;BME280;33253;42.144;25.884;2022-10-18T00:15:47;102101.53;;;9.43;88.15
47524;BME280;33253;42.144;25.884;2022-10-18T00:18:13;102118.06;;;9.59;88.32
47524;BME280;33253;42.144;25.884;2022-10-18T00:20:39;102117.69;;;9.66;88.10
47524;BME280;33253;42.144;25.884;2022-10-18T00:23:04;102083.03;;;9.49;88.83
47524;BME280;33253;42.144;25.884;2022-10-18T00:25:29;102101.03;;;9.74;87.10
47524;BME280;33253;42.144;25.884;2022-10-18T00:27:55;102117.44;;;10.01;87.00
47524;BME280;33253;42.144;25.884;2022-10-18T00:30:20;102084.66;;;9.74;83.73
47524;BME280;33253;42.144;25.884;2022-10-18T00:32:46;102122.81;;;10.04;82.90
47524;BME280;33253;42.144;25.884;2022-10-18T00:35:11;102110.66;;;9.77;82.94
47524;BME280;33253;42.144;25.884;2022-10-18T00:37:36;102103.41;;;9.71;83.12
47524;BME280;33253;42.144;25.884;2022-10-18T00:40:03;102078.41;;;9.70;82.60
47524;BME280;33253;42.144;25.884;2022-10-18T00:42:31;102085.47;;;9.86;82.05
47524;BME280;33253;42.144;25.884;2022-10-18T00:45:29;102075.84;;;9.83;80.32
47524;BME280;33253;42.144;25.884;2022-10-18T00:48:00;102081.09;;;9.85;79.83
47524;BME280;33253;42.144;25.884;2022-10-18T00:50:30;102102.47;;;9.96;79.54
47524;BME280;33253;42.144;25.884;2022-10-18T00:53:00;102094.09;;;9.86;79.92
47524;BME280;33253;42.144;25.884;2022-10-18T00:55:27;102100.84;;;9.98;79.98
47524;BME280;33253;42.144;25.884;2022-10-18T00:57:55;102102.75;;;10.00;77.91
47524;BME280;33253;42.144;25.884;2022-10-18T01:00:21;102070.66;;;9.70;77.74
47524;BME280;33253;42.144;25.884;2022-10-18T01:02:47;102084.56;;;9.72;78.20
47524;BME280;33253;42.144;25.884;2022-10-18T01:05:15;102095.16;;;9.77;78.52
47524;BME280;33253;42.144;25.884;2022-10-18T01:07:46;102097.97;;;9.80;79.38
47524;BME280;33253;42.144;25.884;2022-10-18T01:13:25;102096.50;;;9.83;78.57
47524;BME280;33253;42.144;25.884;2022-10-18T01:16:00;102094.69;;;9.82;78.99
47524;BME280;33253;42.144;25.884;2022-10-18T01:18:56;102093.50;;;9.77;78.89
47524;BME280;33253;42.144;25.884;2022-10-18T01:27:34;102085.88;;;9.40;83.79
47524;BME280;33253;42.144;25.884;2022-10-18T01:32:46;102092.13;;;9.44;81.98
47524;BME280;33253;42.144;25.884;2022-10-18T01:35:16;102076.94;;;9.35;80.83
47524;BME280;33253;42.144;25.884;2022-10-18T01:37:46;102063.66;;;9.03;79.69
47524;BME280;33253;42.144;25.884;2022-10-18T01:40:16;102097.16;;;9.29;79.13
47524;BME280;33253;42.144;25.884;2022-10-18T01:42:44;102098.09;;;9.17;78.67
47524;BME280;33253;42.144;25.884;2022-10-18T01:45:12;102102.22;;;9.15;78.76
47524;BME280;33253;42.144;25.884;2022-10-18T01:47:39;102078.56;;;8.96;78.48
47524;BME280;33253;42.144;25.884;2022-10-18T01:50:06;102066.97;;;8.77;76.50
47524;BME280;33253;42.144;25.884;2022-10-18T01:52:32;102087.44;;;8.87;75.60
47524;BME280;33253;42.144;25.884;2022-10-18T01:54:58;102090.56;;;8.83;76.13
47524;BME280;33253;42.144;25.884;2022-10-18T02:00:40;102081.25;;;8.48;75.39
47524;BME280;33253;42.144;25.884;2022-10-18T02:03:16;102088.31;;;8.51;77.17
47524;BME280;33253;42.144;25.884;2022-10-18T02:05:53;102100.19;;;8.49;77.89
47524;BME280;33253;42.144;25.884;2022-10-18T02:08:30;102097.25;;;8.44;78.97
47524;BME280;33253;42.144;25.884;2022-10-18T02:11:08;102099.16;;;8.47;77.86
47524;BME280;33253;42.144;25.884;2022-10-18T02:13:41;102100.06;;;8.59;77.68
47524;BME280;33253;42.144;25.884;2022-10-18T02:16:33;102095.09;;;8.62;78.44
47524;BME280;33253;42.144;25.884;2022-10-18T02:19:05;102101.38;;;8.66;77.83
47524;BME280;33253;42.144;25.884;2022-10-18T02:21:36;102077.69;;;8.46;77.61
47524;BME280;33253;42.144;25.884;2022-10-18T02:24:03;102097.47;;;8.59;78.29
47524;BME280;33253;42.144;25.884;2022-10-18T02:26:29;102097.34;;;8.46;78.31
47524;BME280;33253;42.144;25.884;2022-10-18T02:28:55;102100.88;;;8.46;78.40
47524;BME280;33253;42.144;25.884;2022-10-18T02:31:25;102098.28;;;8.46;79.16
47524;BME280;33253;42.144;25.884;2022-10-18T02:33:56;102083.06;;;8.37;79.53
47524;BME280;33253;42.144;25.884;2022-10-18T02:39:11;102092.09;;;8.32;80.33
47524;BME280;33253;42.144;25.884;2022-10-18T02:41:41;102091.88;;;8.29;80.46
47524;BME280;33253;42.144;25.884;2022-10-18T02:44:08;102070.63;;;8.20;80.47
47524;BME280;33253;42.144;25.884;2022-10-18T02:46:34;102092.91;;;8.31;79.74
47524;BME280;33253;42.144;25.884;2022-10-18T02:48:59;102089.31;;;8.29;79.17
47524;BME280;33253;42.144;25.884;2022-10-18T02:51:25;102082.59;;;8.19;79.33
47524;BME280;33253;42.144;25.884;2022-10-18T02:53:50;102105.31;;;8.13;79.93
47524;BME280;33253;42.144;25.884;2022-10-18T02:56:16;102096.72;;;8.13;80.52
47524;BME280;33253;42.144;25.884;2022-10-18T02:58:41;102102.72;;;8.13;80.37
47524;BME280;33253;42.144;25.884;2022-10-18T03:01:07;102088.41;;;8.05;80.25
47524;BME280;33253;42.144;25.884;2022-10-18T03:03:32;102089.75;;;8.12;80.28
47524;BME280;33253;42.144;25.884;2022-10-18T03:05:57;102098.91;;;8.20;80.17
47524;BME280;33253;42.144;25.884;2022-10-18T03:08:23;102101.50;;;8.20;80.39
47524;BME280;33253;42.144;25.884;2022-10-18T03:10:49;102098.72;;;8.17;80.97
47524;BME280;33253;42.144;25.884;2022-10-18T03:13:14;102103.44;;;8.22;80.95
47524;BME280;33253;42.144;25.884;2022-10-18T03:15:40;102094.34;;;8.16;81.34
47524;BME280;33253;42.144;25.884;2022-10-18T03:18:06;102065.16;;;7.91;81.45
47524;BME280;33253;42.144;25.884;2022-10-18T03:20:32;102048.84;;;7.79;81.58
47524;BME280;33253;42.144;25.884;2022-10-18T03:22:58;102093.34;;;8.02;81.89
47524;BME280;33253;42.144;25.884;2022-10-18T03:25:23;102103.53;;;8.00;82.22
47524;BME280;33253;42.144;25.884;2022-10-18T03:27:49;102083.03;;;7.90;82.39
47524;BME280;33253;42.144;25.884;2022-10-18T03:30:14;101999.28;;;7.46;82.29
47524;BME280;33253;42.144;25.884;2022-10-18T03:32:40;102088.19;;;8.02;82.94
47524;BME280;33253;42.144;25.884;2022-10-18T03:35:06;102099.16;;;8.11;80.87
47524;BME280;33253;42.144;25.884;2022-10-18T03:37:33;102085.75;;;7.91;81.17
47524;BME280;33253;42.144;25.884;2022-10-18T03:39:59;102071.84;;;7.77;82.20
47524;BME280;33253;42.144;25.884;2022-10-18T03:42:24;102099.34;;;7.78;82.45
47524;BME280;33253;42.144;25.884;2022-10-18T03:44:49;102102.16;;;7.93;81.71
47524;BME280;33253;42.144;25.884;2022-10-18T03:47:15;102098.91;;;7.96;80.87
47524;BME280;33253;42.144;25.884;2022-10-18T03:49:40;102078.91;;;7.92;79.77
47524;BME280;33253;42.144;25.884;2022-10-18T03:52:06;102096.94;;;8.04;80.64
47524;BME280;33253;42.144;25.884;2022-10-18T03:54:31;102119.41;;;8.18;81.26
47524;BME280;33253;42.144;25.884;2022-10-18T03:56:57;102098.59;;;8.03;80.65
47524;BME280;33253;42.144;25.884;2022-10-18T03:59:22;102075.09;;;7.87;80.75
47524;BME280;33253;42.144;25.884;2022-10-18T04:01:48;102106.19;;;8.02;79.93
47524;BME280;33253;42.144;25.884;2022-10-18T04:04:13;102068.63;;;7.80;79.24
47524;BME280;33253;42.144;25.884;2022-10-18T04:06:39;102116.25;;;7.99;78.99
47524;BME280;33253;42.144;25.884;2022-10-18T04:09:05;102098.34;;;7.88;79.40
47524;BME280;33253;42.144;25.884;2022-10-18T04:11:30;102116.34;;;7.88;79.07
47524;BME280;33253;42.144;25.884;2022-10-18T04:13:56;102109.97;;;7.83;79.68
47524;BME280;33253;42.144;25.884;2022-10-18T04:16:21;102108.38;;;7.73;78.13
47524;BME280;33253;42.144;25.884;2022-10-18T04:18:47;102091.72;;;7.68;77.10
47524;BME280;33253;42.144;25.884;2022-10-18T04:21:13;102095.75;;;7.65;76.91
47524;BME280;33253;42.144;25.884;2022-10-18T04:23:39;102104.94;;;7.73;76.52
47524;BME280;33253;42.144;25.884;2022-10-18T04:26:05;102101.44;;;7.60;75.80
47524;BME280;33253;42.144;25.884;2022-10-18T04:28:32;102095.59;;;7.51;76.24
47524;BME280;33253;42.144;25.884;2022-10-18T04:30:57;102054.75;;;7.20;76.74
47524;BME280;33253;42.144;25.884;2022-10-18T04:33:23;102088.66;;;7.16;77.18
47524;BME280;33253;42.144;25.884;2022-10-18T04:35:50;102077.41;;;6.92;77.13
47524;BME280;33253;42.144;25.884;2022-10-18T04:38:16;102071.69;;;6.84;77.87
47524;BME280;33253;42.144;25.884;2022-10-18T04:40:41;102093.28;;;6.98;79.59
47524;BME280;33253;42.144;25.884;2022-10-18T04:43:07;102071.22;;;6.78;81.13
47524;BME280;33253;42.144;25.884;2022-10-18T04:45:32;102092.84;;;6.82;81.65
47524;BME280;33253;42.144;25.884;2022-10-18T04:47:59;102120.88;;;6.78;82.09
47524;BME280;33253;42.144;25.884;2022-10-18T04:50:24;102120.44;;;6.52;83.06
47524;BME280;33253;42.144;25.884;2022-10-18T04:52:50;102114.50;;;6.30;84.02
47524;BME280;33253;42.144;25.884;2022-10-18T04:55:18;102124.13;;;6.33;83.91
47524;BME280;33253;42.144;25.884;2022-10-18T04:57:43;102127.47;;;6.22;83.41
47524;BME280;33253;42.144;25.884;2022-10-18T05:00:09;102134.56;;;6.04;83.66
47524;BME280;33253;42.144;25.884;2022-10-18T05:02:35;102117.16;;;5.99;84.55
47524;BME280;33253;42.144;25.884;2022-10-18T05:05:00;102124.53;;;6.07;85.13
47524;BME280;33253;42.144;25.884;2022-10-18T05:07:26;102117.50;;;6.14;85.12
47524;BME280;33253;42.144;25.884;2022-10-18T05:09:51;102129.53;;;6.26;85.56
47524;BME280;33253;42.144;25.884;2022-10-18T05:12:16;102135.66;;;6.38;85.25
47524;BME280;33253;42.144;25.884;2022-10-18T05:14:42;102133.44;;;6.53;84.69
47524;BME280;33253;42.144;25.884;2022-10-18T05:17:07;102136.81;;;6.42;83.89
47524;BME280;33253;42.144;25.884;2022-10-18T05:19:33;102104.00;;;6.27;83.83
47524;BME280;33253;42.144;25.884;2022-10-18T05:21:58;102134.19;;;6.52;83.05
47524;BME280;33253;42.144;25.884;2022-10-18T05:24:24;102133.16;;;6.60;83.58
47524;BME280;33253;42.144;25.884;2022-10-18T05:26:49;102143.97;;;6.78;84.47
47524;BME280;33253;42.144;25.884;2022-10-18T05:29:14;102145.88;;;6.81;85.41
47524;BME280;33253;42.144;25.884;2022-10-18T05:31:40;102147.38;;;6.89;85.53
47524;BME280;33253;42.144;25.884;2022-10-18T05:34:05;102130.25;;;7.00;85.49
47524;BME280;33253;42.144;25.884;2022-10-18T05:36:31;102133.75;;;7.12;84.79
47524;BME280;33253;42.144;25.884;2022-10-18T05:38:56;102142.00;;;7.31;84.47
47524;BME280;33253;42.144;25.884;2022-10-18T05:41:22;102137.94;;;7.44;84.86
47524;BME280;33253;42.144;25.884;2022-10-18T05:43:47;102137.53;;;7.50;84.60
47524;BME280;33253;42.144;25.884;2022-10-18T05:46:12;102107.50;;;7.39;84.94
47524;BME280;33253;42.144;25.884;2022-10-18T05:48:38;102141.41;;;7.79;84.95
47524;BME280;33253;42.144;25.884;2022-10-18T05:51:04;102113.31;;;7.82;84.44
47524;BME280;33253;42.144;25.884;2022-10-18T05:53:29;102132.94;;;8.04;84.25
47524;BME280;33253;42.144;25.884;2022-10-18T05:55:59;102141.31;;;8.13;84.00
47524;BME280;33253;42.144;25.884;2022-10-18T05:58:24;102137.66;;;8.21;84.24
47524;BME280;33253;42.144;25.884;2022-10-18T06:00:49;102141.78;;;8.43;84.01
47524;BME280;33253;42.144;25.884;2022-10-18T06:03:17;102129.63;;;8.52;83.30
47524;BME280;33253;42.144;25.884;2022-10-18T06:05:42;102098.91;;;8.43;83.04
47524;BME280;33253;42.144;25.884;2022-10-18T06:08:08;102144.13;;;8.76;82.51
47524;BME280;33253;42.144;25.884;2022-10-18T06:10:33;102145.78;;;8.87;81.90
47524;BME280;33253;42.144;25.884;2022-10-18T06:12:59;102141.59;;;9.01;81.44
47524;BME280;33253;42.144;25.884;2022-10-18T06:15:24;102119.00;;;8.97;80.83
47524;BME280;33253;42.144;25.884;2022-10-18T06:17:50;102147.06;;;9.17;80.74
47524;BME280;33253;42.144;25.884;2022-10-18T06:20:15;102149.53;;;9.41;80.70
47524;BME280;33253;42.144;25.884;2022-10-18T06:22:41;102121.38;;;9.44;79.86
47524;BME280;33253;42.144;25.884;2022-10-18T06:25:06;102144.69;;;9.71;79.58
47524;BME280;33253;42.144;25.884;2022-10-18T06:27:33;102135.97;;;9.82;80.31
47524;BME280;33253;42.144;25.884;2022-10-18T06:29:59;102141.53;;;9.88;79.77
47524;BME280;33253;42.144;25.884;2022-10-18T06:32:24;102139.97;;;9.91;79.43
47524;BME280;33253;42.144;25.884;2022-10-18T06:34:49;102131.41;;;9.92;80.07
47524;BME280;33253;42.144;25.884;2022-10-18T06:37:15;102099.63;;;9.66;81.04
47524;BME280;33253;42.144;25.884;2022-10-18T06:39:40;102131.13;;;9.87;82.00
47524;BME280;33253;42.144;25.884;2022-10-18T06:42:25;102127.22;;;9.80;82.50
47524;BME280;33253;42.144;25.884;2022-10-18T06:44:51;102120.41;;;9.94;82.07
47524;BME280;33253;42.144;25.884;2022-10-18T06:47:16;102131.94;;;9.61;83.05
47524;BME280;33253;42.144;25.884;2022-10-18T06:49:42;102129.53;;;9.89;82.72
47524;BME280;33253;42.144;25.884;2022-10-18T06:52:07;102120.22;;;10.18;81.59
47524;BME280;33253;42.144;25.884;2022-10-18T06:54:33;102113.56;;;10.35;79.87
47524;BME280;33253;42.144;25.884;2022-10-18T06:56:58;102116.19;;;10.48;79.14
47524;BME280;33253;42.144;25.884;2022-10-18T06:59:27;102119.53;;;10.34;79.81
47524;BME280;33253;42.144;25.884;2022-10-18T07:01:52;102110.94;;;10.47;79.36
47524;BME280;33253;42.144;25.884;2022-10-18T07:04:18;102114.69;;;10.65;79.03
47524;BME280;33253;42.144;25.884;2022-10-18T07:06:43;102117.50;;;10.83;78.53
47524;BME280;33253;42.144;25.884;2022-10-18T07:09:09;102110.53;;;10.96;78.17
47524;BME280;33253;42.144;25.884;2022-10-18T07:11:34;102121.38;;;11.19;77.25
47524;BME280;33253;42.144;25.884;2022-10-18T07:14:01;102075.56;;;11.16;76.82
47524;BME280;33253;42.144;25.884;2022-10-18T07:16:28;102095.09;;;11.26;77.14
47524;BME280;33253;42.144;25.884;2022-10-18T07:18:54;102061.47;;;10.82;78.43
47524;BME280;33253;42.144;25.884;2022-10-18T07:21:22;102103.00;;;11.14;79.15
47524;BME280;33253;42.144;25.884;2022-10-18T07:23:49;102094.47;;;11.30;78.50
47524;BME280;33253;42.144;25.884;2022-10-18T07:26:16;102092.84;;;11.60;77.04
47524;BME280;33253;42.144;25.884;2022-10-18T07:28:43;102076.31;;;11.73;76.03
47524;BME280;33253;42.144;25.884;2022-10-18T07:31:09;102062.38;;;11.86;75.83
47524;BME280;33253;42.144;25.884;2022-10-18T07:33:35;102083.09;;;12.16;74.85
47524;BME280;33253;42.144;25.884;2022-10-18T07:36:06;102072.84;;;12.18;74.74
47524;BME280;33253;42.144;25.884;2022-10-18T07:38:32;102081.81;;;12.39;73.84
47524;BME280;33253;42.144;25.884;2022-10-18T07:40:59;102082.47;;;12.52;75.75
47524;BME280;33253;42.144;25.884;2022-10-18T07:43:25;102062.53;;;12.34;74.71
47524;BME280;33253;42.144;25.884;2022-10-18T07:45:58;102060.94;;;12.36;75.31
47524;BME280;33253;42.144;25.884;2022-10-18T07:48:24;102060.31;;;12.57;74.69
47524;BME280;33253;42.144;25.884;2022-10-18T07:50:50;102058.72;;;12.75;73.56
47524;BME280;33253;42.144;25.884;2022-10-18T07:53:16;102055.81;;;13.02;73.47
47524;BME280;33253;42.144;25.884;2022-10-18T07:55:41;102045.16;;;13.14;72.85
47524;BME280;33253;42.144;25.884;2022-10-18T07:58:07;102020.59;;;13.24;72.33
47524;BME280;33253;42.144;25.884;2022-10-18T08:00:33;102040.19;;;13.35;72.59
47524;BME280;33253;42.144;25.884;2022-10-18T08:02:58;102003.91;;;13.19;72.79
47524;BME280;33253;42.144;25.884;2022-10-18T08:05:25;102043.94;;;13.40;73.15
47524;BME280;33253;42.144;25.884;2022-10-18T08:07:52;102049.31;;;13.62;73.46
47524;BME280;33253;42.144;25.884;2022-10-18T08:10:19;102042.69;;;13.85;71.93
47524;BME280;33253;42.144;25.884;2022-10-18T08:12:44;102022.72;;;14.02;70.31
47524;BME280;33253;42.144;25.884;2022-10-18T08:15:10;102028.56;;;14.16;70.48
47524;BME280;33253;42.144;25.884;2022-10-18T08:17:35;101974.50;;;14.07;68.42
47524;BME280;33253;42.144;25.884;2022-10-18T08:20:01;102034.00;;;14.58;68.76
47524;BME280;33253;42.144;25.884;2022-10-18T08:22:26;102027.72;;;14.72;67.88
47524;BME280;33253;42.144;25.884;2022-10-18T08:24:52;102004.66;;;14.80;67.58
47524;BME280;33253;42.144;25.884;2022-10-18T08:27:17;102009.03;;;15.01;67.34
47524;BME280;33253;42.144;25.884;2022-10-18T08:29:42;101999.97;;;15.12;65.64
47524;BME280;33253;42.144;25.884;2022-10-18T08:32:08;101990.03;;;15.23;66.08
47524;BME280;33253;42.144;25.884;2022-10-18T08:34:34;101999.69;;;15.47;65.42
47524;BME280;33253;42.144;25.884;2022-10-18T08:36:59;101988.00;;;15.58;61.89
47524;BME280;33253;42.144;25.884;2022-10-18T08:39:25;101988.31;;;15.66;63.21
47524;BME280;33253;42.144;25.884;2022-10-18T08:44:49;101992.94;;;15.94;61.02
47524;BME280;33253;42.144;25.884;2022-10-18T08:47:21;101981.03;;;16.01;62.20
47524;BME280;33253;42.144;25.884;2022-10-18T08:49:53;101981.94;;;16.01;60.52
47524;BME280;33253;42.144;25.884;2022-10-18T08:55:19;101969.41;;;16.38;56.69
47524;BME280;33253;42.144;25.884;2022-10-18T08:57:47;101932.88;;;16.37;56.11
47524;BME280;33253;42.144;25.884;2022-10-18T09:00:21;101951.25;;;16.64;58.09
47524;BME280;33253;42.144;25.884;2022-10-18T09:05:34;101957.72;;;17.00;57.72
47524;BME280;33253;42.144;25.884;2022-10-18T09:11:12;101940.31;;;16.98;56.09
47524;BME280;33253;42.144;25.884;2022-10-18T09:19:56;101930.50;;;17.17;54.38
47524;BME280;33253;42.144;25.884;2022-10-18T09:22:40;101914.09;;;17.21;55.44
47524;BME280;33253;42.144;25.884;2022-10-18T09:28:22;101916.97;;;17.58;57.18
47524;BME280;33253;42.144;25.884;2022-10-18T09:33:32;101884.06;;;17.36;51.67
47524;BME280;33253;42.144;25.884;2022-10-18T09:36:07;101892.97;;;17.70;52.30
47524;BME280;33253;42.144;25.884;2022-10-18T09:38:44;101893.53;;;17.88;52.26
47524;BME280;33253;42.144;25.884;2022-10-18T09:44:16;101886.28;;;18.07;52.98
47524;BME280;33253;42.144;25.884;2022-10-18T09:46:45;101875.13;;;18.14;52.66
47524;BME280;33253;42.144;25.884;2022-10-18T09:49:19;101867.59;;;18.25;50.95
47524;BME280;33253;42.144;25.884;2022-10-18T09:51:47;101862.56;;;18.33;50.31
47524;BME280;33253;42.144;25.884;2022-10-18T09:54:27;101856.13;;;18.20;48.38
47524;BME280;33253;42.144;25.884;2022-10-18T09:57:10;101865.19;;;18.33;48.73
47524;BME280;33253;42.144;25.884;2022-10-18T09:59:41;101856.78;;;18.43;49.42
47524;BME280;33253;42.144;25.884;2022-10-18T10:02:12;101849.59;;;18.04;48.81
47524;BME280;33253;42.144;25.884;2022-10-18T10:04:38;101825.81;;;18.26;49.40
47524;BME280;33253;42.144;25.884;2022-10-18T10:07:07;101847.81;;;18.68;47.54
47524;BME280;33253;42.144;25.884;2022-10-18T10:09:43;101827.13;;;18.78;46.17
47524;BME280;33253;42.144;25.884;2022-10-18T10:12:28;101833.16;;;19.10;46.97
47524;BME280;33253;42.144;25.884;2022-10-18T10:15:11;101824.09;;;19.34;45.48
47524;BME280;33253;42.144;25.884;2022-10-18T10:17:41;101819.94;;;19.42;45.39
47524;BME280;33253;42.144;25.884;2022-10-18T10:20:17;101815.81;;;19.53;44.56
47524;BME280;33253;42.144;25.884;2022-10-18T10:22:45;101825.75;;;19.70;47.16
47524;BME280;33253;42.144;25.884;2022-10-18T10:25:38;101806.69;;;19.77;44.42
47524;BME280;33253;42.144;25.884;2022-10-18T10:28:17;101790.91;;;19.74;43.83
47524;BME280;33253;42.144;25.884;2022-10-18T10:30:44;101800.81;;;19.87;45.56
47524;BME280;33253;42.144;25.884;2022-10-18T10:33:32;101789.44;;;19.87;44.11
47524;BME280;33253;42.144;25.884;2022-10-18T10:35:59;101783.19;;;19.80;44.42
47524;BME280;33253;42.144;25.884;2022-10-18T10:38:27;101769.84;;;19.69;44.80
47524;BME280;33253;42.144;25.884;2022-10-18T10:40:53;101760.69;;;19.49;43.50
47524;BME280;33253;42.144;25.884;2022-10-18T10:43:33;101768.19;;;19.73;44.77
47524;BME280;33253;42.144;25.884;2022-10-18T10:48:38;101726.88;;;20.04;43.09
47524;BME280;33253;42.144;25.884;2022-10-18T10:51:08;101745.50;;;20.21;43.82
47524;BME280;33253;42.144;25.884;2022-10-18T10:56:26;101699.88;;;20.10;42.13
47524;BME280;33253;42.144;25.884;2022-10-18T10:58:53;101701.88;;;20.25;41.45
47524;BME280;33253;42.144;25.884;2022-10-18T11:01:29;101721.47;;;20.48;42.01
47524;BME280;33253;42.144;25.884;2022-10-18T11:04:01;101706.56;;;20.44;41.57
47524;BME280;33253;42.144;25.884;2022-10-18T11:09:05;101709.81;;;20.29;42.57
47524;BME280;33253;42.144;25.884;2022-10-18T11:11:40;101696.84;;;20.39;41.78
47524;BME280;33253;42.144;25.884;2022-10-18T11:14:37;101691.09;;;20.61;40.12
47524;BME280;33253;42.144;25.884;2022-10-18T11:19:54;101679.97;;;20.76;40.07
47524;BME280;33253;42.144;25.884;2022-10-18T11:22:24;101681.75;;;20.77;40.10
47524;BME280;33253;42.144;25.884;2022-10-18T11:24:51;101632.16;;;20.38;41.72
47524;BME280;33253;42.144;25.884;2022-10-18T11:30:02;101627.56;;;20.24;40.74
47524;BME280;33253;42.144;25.884;2022-10-18T11:32:39;101666.63;;;20.62;42.02
47524;BME280;33253;42.144;25.884;2022-10-18T11:35:45;101657.56;;;20.43;40.98
47524;BME280;33253;42.144;25.884;2022-10-18T11:38:24;101663.09;;;20.62;42.09
47524;BME280;33253;42.144;25.884;2022-10-18T11:43:34;101645.19;;;20.93;39.61
47524;BME280;33253;42.144;25.884;2022-10-18T12:04:37;101602.81;;;20.66;39.49
47524;BME280;33253;42.144;25.884;2022-10-18T12:07:06;101574.47;;;20.41;41.03
47524;BME280;33253;42.144;25.884;2022-10-18T12:09:42;101567.53;;;20.43;41.31
47524;BME280;33253;42.144;25.884;2022-10-18T12:12:19;101586.16;;;20.61;41.45
47524;BME280;33253;42.144;25.884;2022-10-18T12:17:50;101587.22;;;20.74;40.23
47524;BME280;33253;42.144;25.884;2022-10-18T12:20:34;101560.81;;;20.65;41.02
47524;BME280;33253;42.144;25.884;2022-10-18T12:25:58;101572.41;;;20.79;42.82
47524;BME280;33253;42.144;25.884;2022-10-18T12:33:42;101551.53;;;20.89;39.43
47524;BME280;33253;42.144;25.884;2022-10-18T12:39:02;101551.59;;;20.95;40.08
47524;BME280;33253;42.144;25.884;2022-10-18T12:41:31;101561.09;;;20.85;40.81
47524;BME280;33253;42.144;25.884;2022-10-18T12:44:06;101554.91;;;20.80;39.78
47524;BME280;33253;42.144;25.884;2022-10-18T12:46:44;101556.69;;;20.82;39.86
47524;BME280;33253;42.144;25.884;2022-10-18T12:49:12;101552.31;;;20.80;40.87
47524;BME280;33253;42.144;25.884;2022-10-18T12:51:50;101533.69;;;20.63;40.53
47524;BME280;33253;42.144;25.884;2022-10-18T12:54:19;101545.09;;;20.68;41.07
47524;BME280;33253;42.144;25.884;2022-10-18T12:56:46;101481.69;;;20.31;41.35
47524;BME280;33253;42.144;25.884;2022-10-18T13:09:24;101497.28;;;20.20;43.92
47524;BME280;33253;42.144;25.884;2022-10-18T13:11:52;101534.31;;;20.45;44.20
47524;BME280;33253;42.144;25.884;2022-10-18T13:14:59;101524.72;;;20.47;43.06
47524;BME280;33253;42.144;25.884;2022-10-18T13:17:35;101516.84;;;20.44;43.10
47524;BME280;33253;42.144;25.884;2022-10-18T13:26:03;101478.88;;;20.17;43.89
47524;BME280;33253;42.144;25.884;2022-10-18T13:31:38;101506.31;;;20.42;44.92
47524;BME280;33253;42.144;25.884;2022-10-18T13:34:35;101504.59;;;20.44;44.09
47524;BME280;33253;42.144;25.884;2022-10-18T13:39:34;101481.75;;;20.34;45.76
47524;BME280;33253;42.144;25.884;2022-10-18T13:44:28;101481.78;;;20.39;44.99
47524;BME280;33253;42.144;25.884;2022-10-18T14:00:13;101433.19;;;19.96;47.22
47524;BME280;33253;42.144;25.884;2022-10-18T14:08:01;101464.84;;;20.12;46.66
47524;BME280;33253;42.144;25.884;2022-10-18T14:10:49;101458.59;;;20.02;47.47
47524;BME280;33253;42.144;25.884;2022-10-18T14:13:20;101452.41;;;19.98;47.51
47524;BME280;33253;42.144;25.884;2022-10-18T14:15:50;101442.78;;;19.96;46.84
47524;BME280;33253;42.144;25.884;2022-10-18T14:18:23;101454.28;;;20.06;47.09
47524;BME280;33253;42.144;25.884;2022-10-18T14:20:54;101449.88;;;20.04;46.90
47524;BME280;33253;42.144;25.884;2022-10-18T14:23:25;101444.63;;;20.04;47.73
47524;BME280;33253;42.144;25.884;2022-10-18T14:26:15;101432.28;;;19.96;47.72
47524;BME280;33253;42.144;25.884;2022-10-18T14:28:41;101431.38;;;19.92;47.81
47524;BME280;33253;42.144;25.884;2022-10-18T14:31:18;101434.00;;;19.94;47.43
47524;BME280;33253;42.144;25.884;2022-10-18T14:33:51;101437.53;;;19.96;47.67
47524;BME280;33253;42.144;25.884;2022-10-18T14:36:21;101440.13;;;19.94;48.10
47524;BME280;33253;42.144;25.884;2022-10-18T14:38:51;101408.25;;;19.65;48.33
47524;BME280;33253;42.144;25.884;2022-10-18T14:41:23;101434.63;;;19.79;48.95
47524;BME280;33253;42.144;25.884;2022-10-18T14:43:50;101435.34;;;19.67;49.12
47524;BME280;33253;42.144;25.884;2022-10-18T14:46:24;101434.53;;;19.72;48.71
47524;BME280;33253;42.144;25.884;2022-10-18T14:48:56;101395.03;;;19.55;48.94
47524;BME280;33253;42.144;25.884;2022-10-18T14:51:23;101425.72;;;19.66;49.08
47524;BME280;33253;42.144;25.884;2022-10-18T14:53:50;101424.88;;;19.67;49.45
47524;BME280;33253;42.144;25.884;2022-10-18T14:56:28;101391.28;;;19.39;49.37
47524;BME280;33253;42.144;25.884;2022-10-18T14:58:59;101412.41;;;19.50;49.66
47524;BME280;33253;42.144;25.884;2022-10-18T15:01:31;101422.06;;;19.53;50.00
47524;BME280;33253;42.144;25.884;2022-10-18T15:04:04;101379.66;;;19.20;49.70
47524;BME280;33253;42.144;25.884;2022-10-18T15:06:31;101415.81;;;19.46;50.02
47524;BME280;33253;42.144;25.884;2022-10-18T15:08:58;101427.13;;;19.44;49.16
47524;BME280;33253;42.144;25.884;2022-10-18T15:11:26;101423.63;;;19.43;49.73